Glen Arbor, MI

12:27 PM EDT on May 27, 2015 (GMT -0400)
Glen Arbor Estates | | Change Station
CLOSE
Current Station
Personal Weather Station
Location: Glen Arbor, MI
Elevation: 623 ft
Nearby Weather Stations

Elev 623 ft 44.89 °N, 85.99 °W | Updated 7 seconds ago

Overcast
Overcast
55.0 °F
Feels Like 55.0 °F
N
0.0
Wind Variable Wind from WSW
Gusts 3.0 mph

Today
High -- | Low -- °F
--% Chance of Precip.
Yesterday
High -- | Low -- °F
Precip. -- in
6:04 AM 9:18 PM
Waxing Gibbous, 68% visible
Pressure 29.88 in
Visibility 1.2 miles
Clouds Overcast 300 ft
Dew Point 54 °F
Humidity 97%
Rainfall 0.00 in
Snow Depth Not available.
UV 3 out of 12
Pollen 6.20 out of 12
Air Quality Not available.
Flu Activity Sporadic
METAR KFKS 271613Z AUTO 23009KT 1 1/4SM HZ OVC003 12/09 A2988 RMK AO2 T01210091

More Conditions Fewer Conditions

Pressure 29.88 in
Visibility 1.2 miles
Clouds Overcast 300 ft
Dew Point 54 °F
Humidity 97%
Rainfall 0.00 in
Snow Depth Not available.
UV 3 out of 12
Pollen 6.20 out of 12
Air Quality Not available.
Flu Activity Sporadic
METAR KFKS 271613Z AUTO 23009KT 1 1/4SM HZ OVC003 12/09 A2988 RMK AO2 T01210091

More Conditions Fewer Conditions

Nowcast | as of 12:00 PM EDT on May 27, 2015

At 1 PM...showers likely and chance of drizzle. Temperature 58. West winds 13 mph. At 3 PM...rain and drizzle likely. Temperature 59. West winds 10 mph. At 5 PM...rain and drizzle likely. Temperature 61. West winds 10 mph. At 7 PM...rain and drizzle likely. Temperature 60. West winds 8 mph.

×

10-Day Weather Forecast

Almanac

Astronomy

May. 27, 2015 Rise Set
Actual Time
Civil Twilight
Nautical Twilight
Astronomical Twilight
Moon
Length of Visible Light
Length of Day
Tomorrow will be .
, % of the Moon is Illuminated

Today's Extremes

State Highs State Lows

Community

WunderPhotos

Upload Photos

1,824,711 photos uploaded!

WunderBlogs® & News

Nearby

Air Quality

  Air Quality AQ Index Pollutant
Not available.

Snow Depth

Station Depth Elevation

Earthquake Activity

City Distance Mag. Time & Date
Minimum magnitude displayed is 2.5.

Coastal Water Temperatures

Place Temperature

Stations

Nearby Weather Stations

Station Location Temp. Windchill Dew Point Humidity Wind Precip. Elev Updated Type